sensor_id;sensor_type;location;lat;lon;timestamp;temperature;humidity
41644;DHT22;44236;48.098;11.582;2023-03-01T00:01:51;16.80;38.10
41644;DHT22;44236;48.098;11.582;2023-03-01T00:04:16;16.80;38.10
41644;DHT22;44236;48.098;11.582;2023-03-01T00:06:42;16.70;38.10
41644;DHT22;44236;48.098;11.582;2023-03-01T00:09:11;16.70;38.20
41644;DHT22;44236;48.098;11.582;2023-03-01T00:11:37;16.70;38.10
41644;DHT22;44236;48.098;11.582;2023-03-01T00:14:03;16.70;38.20
41644;DHT22;44236;48.098;11.582;2023-03-01T00:16:36;16.70;38.20
41644;DHT22;44236;48.098;11.582;2023-03-01T00:19:02;16.60;38.40
41644;DHT22;44236;48.098;11.582;2023-03-01T00:21:28;16.60;38.20
41644;DHT22;44236;48.098;11.582;2023-03-01T00:23:54;16.60;38.30
41644;DHT22;44236;48.098;11.582;2023-03-01T00:26:22;16.60;38.40
41644;DHT22;44236;48.098;11.582;2023-03-01T00:28:47;16.60;38.30
41644;DHT22;44236;48.098;11.582;2023-03-01T00:31:15;16.50;38.10
41644;DHT22;44236;48.098;11.582;2023-03-01T00:33:42;16.50;38.30
41644;DHT22;44236;48.098;11.582;2023-03-01T00:36:09;16.50;38.20
41644;DHT22;44236;48.098;11.582;2023-03-01T00:38:37;16.50;38.60
41644;DHT22;44236;48.098;11.582;2023-03-01T00:41:07;16.50;38.50
41644;DHT22;44236;48.098;11.582;2023-03-01T00:43:33;16.40;38.40
41644;DHT22;44236;48.098;11.582;2023-03-01T00:46:10;16.40;38.50
41644;DHT22;44236;48.098;11.582;2023-03-01T00:48:36;16.40;38.50
41644;DHT22;44236;48.098;11.582;2023-03-01T00:53:31;16.30;38.40
41644;DHT22;44236;48.098;11.582;2023-03-01T00:55:57;16.40;38.50
41644;DHT22;44236;48.098;11.582;2023-03-01T00:58:23;16.30;38.60
41644;DHT22;44236;48.098;11.582;2023-03-01T01:00:49;16.30;38.40
41644;DHT22;44236;48.098;11.582;2023-03-01T01:03:15;16.30;38.60
41644;DHT22;44236;48.098;11.582;2023-03-01T01:05:41;16.30;38.40
41644;DHT22;44236;48.098;11.582;2023-03-01T01:08:06;16.30;38.60
41644;DHT22;44236;48.098;11.582;2023-03-01T01:10:34;16.20;38.70
41644;DHT22;44236;48.098;11.582;2023-03-01T01:12:59;16.20;38.60
41644;DHT22;44236;48.098;11.582;2023-03-01T01:15:26;16.20;38.50
41644;DHT22;44236;48.098;11.582;2023-03-01T01:17:52;16.20;38.70
41644;DHT22;44236;48.098;11.582;2023-03-01T01:20:18;16.20;38.50
41644;DHT22;44236;48.098;11.582;2023-03-01T01:22:44;16.20;38.70
41644;DHT22;44236;48.098;11.582;2023-03-01T01:25:09;16.10;38.60
41644;DHT22;44236;48.098;11.582;2023-03-01T01:27:35;16.10;38.80
41644;DHT22;44236;48.098;11.582;2023-03-01T01:30:01;16.10;38.60
41644;DHT22;44236;48.098;11.582;2023-03-01T01:32:28;16.10;38.80
41644;DHT22;44236;48.098;11.582;2023-03-01T01:34:54;16.10;38.80
41644;DHT22;44236;48.098;11.582;2023-03-01T01:37:20;16.10;38.70
41644;DHT22;44236;48.098;11.582;2023-03-01T01:39:46;16.00;38.70
41644;DHT22;44236;48.098;11.582;2023-03-01T01:42:16;16.00;38.80
41644;DHT22;44236;48.098;11.582;2023-03-01T01:44:45;16.00;38.70
41644;DHT22;44236;48.098;11.582;2023-03-01T01:47:20;16.00;38.90
41644;DHT22;44236;48.098;11.582;2023-03-01T01:49:49;16.00;38.80
41644;DHT22;44236;48.098;11.582;2023-03-01T01:52:18;16.00;38.90
41644;DHT22;44236;48.098;11.582;2023-03-01T01:57:21;15.90;38.70
41644;DHT22;44236;48.098;11.582;2023-03-01T01:59:52;15.90;38.90
41644;DHT22;44236;48.098;11.582;2023-03-01T02:02:18;15.90;38.90
41644;DHT22;44236;48.098;11.582;2023-03-01T02:04:44;15.90;38.90
41644;DHT22;44236;48.098;11.582;2023-03-01T02:07:20;15.90;39.00
41644;DHT22;44236;48.098;11.582;2023-03-01T02:09:49;15.90;38.80
41644;DHT22;44236;48.098;11.582;2023-03-01T02:12:17;15.90;39.10
41644;DHT22;44236;48.098;11.582;2023-03-01T02:14:44;15.80;38.80
41644;DHT22;44236;48.098;11.582;2023-03-01T02:17:11;15.80;38.80
41644;DHT22;44236;48.098;11.582;2023-03-01T02:19:44;15.80;38.90
41644;DHT22;44236;48.098;11.582;2023-03-01T02:22:23;15.80;39.00
41644;DHT22;44236;48.098;11.582;2023-03-01T02:30:45;15.80;38.90
41644;DHT22;44236;48.098;11.582;2023-03-01T02:33:33;15.80;38.80
41644;DHT22;44236;48.098;11.582;2023-03-01T02:36:03;15.70;38.90
41644;DHT22;44236;48.098;11.582;2023-03-01T02:38:31;15.70;38.90
41644;DHT22;44236;48.098;11.582;2023-03-01T02:40:57;15.70;38.80
41644;DHT22;44236;48.098;11.582;2023-03-01T02:43:27;15.70;38.90
41644;DHT22;44236;48.098;11.582;2023-03-01T02:45:58;15.70;38.80
41644;DHT22;44236;48.098;11.582;2023-03-01T02:48:24;15.70;39.30
41644;DHT22;44236;48.098;11.582;2023-03-01T02:54:13;15.70;38.80
41644;DHT22;44236;48.098;11.582;2023-03-01T02:56:41;15.70;38.90
41644;DHT22;44236;48.098;11.582;2023-03-01T02:59:07;15.60;39.10
41644;DHT22;44236;48.098;11.582;2023-03-01T03:01:33;15.60;38.80
41644;DHT22;44236;48.098;11.582;2023-03-01T03:04:10;15.60;39.00
41644;DHT22;44236;48.098;11.582;2023-03-01T03:06:36;15.60;39.20
41644;DHT22;44236;48.098;11.582;2023-03-01T03:09:05;15.50;38.90
41644;DHT22;44236;48.098;11.582;2023-03-01T03:11:31;15.60;39.00
41644;DHT22;44236;48.098;11.582;2023-03-01T03:13:57;15.50;39.00
41644;DHT22;44236;48.098;11.582;2023-03-01T03:16:23;15.50;39.00
41644;DHT22;44236;48.098;11.582;2023-03-01T03:18:50;15.50;39.10
41644;DHT22;44236;48.098;11.582;2023-03-01T03:21:16;15.50;39.00
41644;DHT22;44236;48.098;11.582;2023-03-01T03:23:42;15.50;39.20
41644;DHT22;44236;48.098;11.582;2023-03-01T03:26:07;15.50;39.20
41644;DHT22;44236;48.098;11.582;2023-03-01T03:28:34;15.50;39.20
41644;DHT22;44236;48.098;11.582;2023-03-01T03:31:00;15.60;39.40
41644;DHT22;44236;48.098;11.582;2023-03-01T03:33:32;15.60;39.40
41644;DHT22;44236;48.098;11.582;2023-03-01T03:35:58;15.60;39.10
41644;DHT22;44236;48.098;11.582;2023-03-01T03:38:23;15.60;39.20
41644;DHT22;44236;48.098;11.582;2023-03-01T03:40:51;15.60;39.70
41644;DHT22;44236;48.098;11.582;2023-03-01T03:43:20;15.60;39.30
41644;DHT22;44236;48.098;11.582;2023-03-01T03:45:46;15.60;39.00
41644;DHT22;44236;48.098;11.582;2023-03-01T03:48:12;15.70;39.10
41644;DHT22;44236;48.098;11.582;2023-03-01T03:50:39;15.70;39.20
41644;DHT22;44236;48.098;11.582;2023-03-01T03:53:09;15.70;39.00
41644;DHT22;44236;48.098;11.582;2023-03-01T03:55:35;15.60;39.10
41644;DHT22;44236;48.098;11.582;2023-03-01T03:58:06;15.60;39.10
41644;DHT22;44236;48.098;11.582;2023-03-01T04:00:37;15.70;39.10
41644;DHT22;44236;48.098;11.582;2023-03-01T04:03:03;15.60;39.10
41644;DHT22;44236;48.098;11.582;2023-03-01T04:05:29;15.60;39.30
41644;DHT22;44236;48.098;11.582;2023-03-01T04:07:55;16.10;39.30
41644;DHT22;44236;48.098;11.582;2023-03-01T04:10:32;15.60;39.00
41644;DHT22;44236;48.098;11.582;2023-03-01T04:12:58;15.70;39.10
41644;DHT22;44236;48.098;11.582;2023-03-01T04:15:25;15.60;39.00
41644;DHT22;44236;48.098;11.582;2023-03-01T04:17:53;15.60;39.10
41644;DHT22;44236;48.098;11.582;2023-03-01T04:20:22;15.60;38.90
41644;DHT22;44236;48.098;11.582;2023-03-01T04:25:39;15.60;38.70
41644;DHT22;44236;48.098;11.582;2023-03-01T04:28:05;15.70;38.90
41644;DHT22;44236;48.098;11.582;2023-03-01T04:30:31;15.60;38.70
41644;DHT22;44236;48.098;11.582;2023-03-01T04:33:07;15.60;38.90
41644;DHT22;44236;48.098;11.582;2023-03-01T04:35:34;15.60;38.80
41644;DHT22;44236;48.098;11.582;2023-03-01T04:38:00;15.60;38.70
41644;DHT22;44236;48.098;11.582;2023-03-01T04:40:25;15.60;38.80
41644;DHT22;44236;48.098;11.582;2023-03-01T04:42:51;15.60;39.00
41644;DHT22;44236;48.098;11.582;2023-03-01T04:45:17;15.60;39.10
41644;DHT22;44236;48.098;11.582;2023-03-01T04:47:45;15.60;40.60
41644;DHT22;44236;48.098;11.582;2023-03-01T04:50:13;15.60;40.80
41644;DHT22;44236;48.098;11.582;2023-03-01T04:52:39;15.70;40.70
41644;DHT22;44236;48.098;11.582;2023-03-01T04:55:05;15.60;40.50
41644;DHT22;44236;48.098;11.582;2023-03-01T04:57:31;15.60;40.80
41644;DHT22;44236;48.098;11.582;2023-03-01T04:59:57;15.60;40.50
41644;DHT22;44236;48.098;11.582;2023-03-01T05:02:23;15.70;41.50
41644;DHT22;44236;48.098;11.582;2023-03-01T05:04:48;15.70;41.90
41644;DHT22;44236;48.098;11.582;2023-03-01T05:07:14;15.70;41.90
41644;DHT22;44236;48.098;11.582;2023-03-01T05:09:47;15.70;42.20
41644;DHT22;44236;48.098;11.582;2023-03-01T05:12:14;15.70;42.50
41644;DHT22;44236;48.098;11.582;2023-03-01T05:14:40;15.80;42.60
41644;DHT22;44236;48.098;11.582;2023-03-01T05:17:06;15.70;42.50
41644;DHT22;44236;48.098;11.582;2023-03-01T05:19:32;15.80;42.80
41644;DHT22;44236;48.098;11.582;2023-03-01T05:21:58;15.80;42.30
41644;DHT22;44236;48.098;11.582;2023-03-01T05:24:28;15.80;41.90
41644;DHT22;44236;48.098;11.582;2023-03-01T05:26:53;15.80;42.00
41644;DHT22;44236;48.098;11.582;2023-03-01T05:29:21;15.80;41.10
41644;DHT22;44236;48.098;11.582;2023-03-01T05:31:57;15.90;40.80
41644;DHT22;44236;48.098;11.582;2023-03-01T05:34:28;15.90;40.60
41644;DHT22;44236;48.098;11.582;2023-03-01T05:36:54;15.80;40.60
41644;DHT22;44236;48.098;11.582;2023-03-01T05:39:24;15.90;40.80
41644;DHT22;44236;48.098;11.582;2023-03-01T05:41:58;15.90;41.00
41644;DHT22;44236;48.098;11.582;2023-03-01T05:44:25;16.00;40.80
41644;DHT22;44236;48.098;11.582;2023-03-01T05:46:51;16.00;41.60
41644;DHT22;44236;48.098;11.582;2023-03-01T05:49:17;16.10;40.00
41644;DHT22;44236;48.098;11.582;2023-03-01T05:51:47;16.10;42.00
41644;DHT22;44236;48.098;11.582;2023-03-01T05:54:13;16.20;42.10
41644;DHT22;44236;48.098;11.582;2023-03-01T05:56:39;16.20;42.10
41644;DHT22;44236;48.098;11.582;2023-03-01T05:59:05;16.20;41.80
41644;DHT22;44236;48.098;11.582;2023-03-01T06:01:34;16.30;41.20
41644;DHT22;44236;48.098;11.582;2023-03-01T06:04:00;16.30;41.60
41644;DHT22;44236;48.098;11.582;2023-03-01T06:06:26;16.30;41.40
41644;DHT22;44236;48.098;11.582;2023-03-01T06:08:54;16.30;41.60
41644;DHT22;44236;48.098;11.582;2023-03-01T06:11:21;16.30;41.00
41644;DHT22;44236;48.098;11.582;2023-03-01T06:13:46;16.40;41.40
41644;DHT22;44236;48.098;11.582;2023-03-01T06:16:13;16.40;41.20
41644;DHT22;44236;48.098;11.582;2023-03-01T06:18:39;16.40;40.90
41644;DHT22;44236;48.098;11.582;2023-03-01T06:21:06;16.40;40.60
41644;DHT22;44236;48.098;11.582;2023-03-01T06:23:32;16.40;41.00
41644;DHT22;44236;48.098;11.582;2023-03-01T06:25:58;16.50;41.10
41644;DHT22;44236;48.098;11.582;2023-03-01T06:28:23;16.50;40.60
41644;DHT22;44236;48.098;11.582;2023-03-01T06:30:50;16.50;41.00
41644;DHT22;44236;48.098;11.582;2023-03-01T06:33:17;16.50;40.60
41644;DHT22;44236;48.098;11.582;2023-03-01T06:35:48;16.50;40.50
41644;DHT22;44236;48.098;11.582;2023-03-01T06:38:13;16.60;39.90
41644;DHT22;44236;48.098;11.582;2023-03-01T06:40:45;16.60;39.70
41644;DHT22;44236;48.098;11.582;2023-03-01T06:43:10;16.60;39.50
41644;DHT22;44236;48.098;11.582;2023-03-01T06:45:37;16.60;39.90
41644;DHT22;44236;48.098;11.582;2023-03-01T06:48:07;16.60;40.00
41644;DHT22;44236;48.098;11.582;2023-03-01T06:50:35;16.60;40.40
41644;DHT22;44236;48.098;11.582;2023-03-01T06:53:01;16.60;40.30
41644;DHT22;44236;48.098;11.582;2023-03-01T06:55:26;16.60;40.40
41644;DHT22;44236;48.098;11.582;2023-03-01T06:57:56;16.60;40.00
41644;DHT22;44236;48.098;11.582;2023-03-01T07:00:23;16.60;40.90
41644;DHT22;44236;48.098;11.582;2023-03-01T07:02:49;16.60;41.30
41644;DHT22;44236;48.098;11.582;2023-03-01T07:05:14;16.60;40.80
41644;DHT22;44236;48.098;11.582;2023-03-01T07:07:40;16.60;40.80
41644;DHT22;44236;48.098;11.582;2023-03-01T07:10:09;16.60;39.90
41644;DHT22;44236;48.098;11.582;2023-03-01T07:12:34;16.60;39.70
41644;DHT22;44236;48.098;11.582;2023-03-01T07:15:00;16.60;39.70
41644;DHT22;44236;48.098;11.582;2023-03-01T07:17:26;16.70;39.90
41644;DHT22;44236;48.098;11.582;2023-03-01T07:19:51;16.70;39.30
41644;DHT22;44236;48.098;11.582;2023-03-01T07:22:17;16.80;39.60
41644;DHT22;44236;48.098;11.582;2023-03-01T07:24:43;16.80;39.80
41644;DHT22;44236;48.098;11.582;2023-03-01T07:27:09;16.80;40.70
41644;DHT22;44236;48.098;11.582;2023-03-01T07:29:35;16.80;39.60
41644;DHT22;44236;48.098;11.582;2023-03-01T07:32:02;16.80;39.30
41644;DHT22;44236;48.098;11.582;2023-03-01T07:34:28;16.80;39.30
41644;DHT22;44236;48.098;11.582;2023-03-01T07:36:54;16.80;38.90
41644;DHT22;44236;48.098;11.582;2023-03-01T07:39:19;16.90;39.60
41644;DHT22;44236;48.098;11.582;2023-03-01T07:41:45;16.90;40.10
41644;DHT22;44236;48.098;11.582;2023-03-01T07:44:11;16.90;39.90
41644;DHT22;44236;48.098;11.582;2023-03-01T07:46:36;16.80;39.50
41644;DHT22;44236;48.098;11.582;2023-03-01T07:49:02;16.80;39.60
41644;DHT22;44236;48.098;11.582;2023-03-01T07:51:28;16.80;39.40
41644;DHT22;44236;48.098;11.582;2023-03-01T07:53:53;16.90;39.40
41644;DHT22;44236;48.098;11.582;2023-03-01T07:56:19;16.90;39.20
41644;DHT22;44236;48.098;11.582;2023-03-01T07:58:45;16.80;39.30
41644;DHT22;44236;48.098;11.582;2023-03-01T08:01:17;16.90;39.90
41644;DHT22;44236;48.098;11.582;2023-03-01T08:03:43;16.90;38.80
41644;DHT22;44236;48.098;11.582;2023-03-01T08:06:10;16.90;38.80
41644;DHT22;44236;48.098;11.582;2023-03-01T08:08:36;16.80;38.30
41644;DHT22;44236;48.098;11.582;2023-03-01T08:11:04;16.80;38.70
41644;DHT22;44236;48.098;11.582;2023-03-01T08:13:30;16.90;38.40
41644;DHT22;44236;48.098;11.582;2023-03-01T08:16:04;16.80;38.90
41644;DHT22;44236;48.098;11.582;2023-03-01T08:18:29;16.90;38.40
41644;DHT22;44236;48.098;11.582;2023-03-01T08:20:55;16.90;38.80
41644;DHT22;44236;48.098;11.582;2023-03-01T08:23:21;16.90;38.70
41644;DHT22;44236;48.098;11.582;2023-03-01T08:25:47;16.90;38.20
41644;DHT22;44236;48.098;11.582;2023-03-01T08:28:12;16.90;38.10
41644;DHT22;44236;48.098;11.582;2023-03-01T08:30:38;16.90;38.70
41644;DHT22;44236;48.098;11.582;2023-03-01T08:33:03;16.90;38.60
41644;DHT22;44236;48.098;11.582;2023-03-01T08:35:29;16.90;38.20
41644;DHT22;44236;48.098;11.582;2023-03-01T08:37:55;16.90;38.10
41644;DHT22;44236;48.098;11.582;2023-03-01T08:40:20;16.90;38.00
41644;DHT22;44236;48.098;11.582;2023-03-01T08:42:46;16.90;37.80
41644;DHT22;44236;48.098;11.582;2023-03-01T08:45:12;16.90;37.80
41644;DHT22;44236;48.098;11.582;2023-03-01T08:47:39;16.90;38.20
41644;DHT22;44236;48.098;11.582;2023-03-01T08:50:05;16.90;38.40
41644;DHT22;44236;48.098;11.582;2023-03-01T08:52:32;17.00;38.20
41644;DHT22;44236;48.098;11.582;2023-03-01T08:54:58;17.00;38.60
41644;DHT22;44236;48.098;11.582;2023-03-01T08:57:24;16.90;38.40
41644;DHT22;44236;48.098;11.582;2023-03-01T08:59:49;16.90;38.20
41644;DHT22;44236;48.098;11.582;2023-03-01T09:02:17;17.00;38.50
41644;DHT22;44236;48.098;11.582;2023-03-01T09:04:43;16.90;38.60
41644;DHT22;44236;48.098;11.582;2023-03-01T09:07:10;17.00;38.30
41644;DHT22;44236;48.098;11.582;2023-03-01T09:09:36;16.90;38.10
41644;DHT22;44236;48.098;11.582;2023-03-01T09:12:03;17.00;38.30
41644;DHT22;44236;48.098;11.582;2023-03-01T09:14:29;17.00;38.60
41644;DHT22;44236;48.098;11.582;2023-03-01T09:16:55;17.00;38.50
41644;DHT22;44236;48.098;11.582;2023-03-01T09:19:20;17.00;38.60
41644;DHT22;44236;48.098;11.582;2023-03-01T09:21:46;17.00;38.40
41644;DHT22;44236;48.098;11.582;2023-03-01T09:24:22;17.00;38.50
41644;DHT22;44236;48.098;11.582;2023-03-01T09:26:49;17.00;38.20
41644;DHT22;44236;48.098;11.582;2023-03-01T09:29:15;17.00;38.10
41644;DHT22;44236;48.098;11.582;2023-03-01T09:31:42;17.00;38.50
41644;DHT22;44236;48.098;11.582;2023-03-01T09:34:08;17.00;38.40
41644;DHT22;44236;48.098;11.582;2023-03-01T09:36:34;17.00;38.30
41644;DHT22;44236;48.098;11.582;2023-03-01T09:39:01;17.00;38.40
41644;DHT22;44236;48.098;11.582;2023-03-01T09:41:49;17.00;38.40
41644;DHT22;44236;48.098;11.582;2023-03-01T09:46:46;17.00;38.30
41644;DHT22;44236;48.098;11.582;2023-03-01T09:49:18;17.00;38.50
41644;DHT22;44236;48.098;11.582;2023-03-01T09:52:04;17.00;38.30
41644;DHT22;44236;48.098;11.582;2023-03-01T09:54:35;17.00;38.10
41644;DHT22;44236;48.098;11.582;2023-03-01T09:59:48;17.00;38.30
41644;DHT22;44236;48.098;11.582;2023-03-01T10:08:34;17.00;37.20
41644;DHT22;44236;48.098;11.582;2023-03-01T10:11:05;17.00;37.80
41644;DHT22;44236;48.098;11.582;2023-03-01T10:14:03;17.00;37.90
41644;DHT22;44236;48.098;11.582;2023-03-01T10:19:00;17.00;37.60
41644;DHT22;44236;48.098;11.582;2023-03-01T10:21:27;17.10;37.60
41644;DHT22;44236;48.098;11.582;2023-03-01T10:23:55;17.00;37.90
41644;DHT22;44236;48.098;11.582;2023-03-01T10:29:15;17.10;38.10
41644;DHT22;44236;48.098;11.582;2023-03-01T10:31:51;17.10;38.00
41644;DHT22;44236;48.098;11.582;2023-03-01T10:34:33;17.10;38.10
41644;DHT22;44236;48.098;11.582;2023-03-01T10:37:10;17.10;38.00
41644;DHT22;44236;48.098;11.582;2023-03-01T10:39:35;17.10;37.90
41644;DHT22;44236;48.098;11.582;2023-03-01T10:42:03;17.00;37.90
41644;DHT22;44236;48.098;11.582;2023-03-01T10:44:47;17.10;37.80
41644;DHT22;44236;48.098;11.582;2023-03-01T10:47:25;17.10;37.90
41644;DHT22;44236;48.098;11.582;2023-03-01T10:52:24;17.10;37.90
41644;DHT22;44236;48.098;11.582;2023-03-01T10:54:56;17.10;37.80
41644;DHT22;44236;48.098;11.582;2023-03-01T10:57:37;17.10;37.80
41644;DHT22;44236;48.098;11.582;2023-03-01T11:02:38;17.10;37.80
41644;DHT22;44236;48.098;11.582;2023-03-01T11:07:59;17.20;37.00
41644;DHT22;44236;48.098;11.582;2023-03-01T11:10:31;17.20;37.10
41644;DHT22;44236;48.098;11.582;2023-03-01T11:13:18;17.20;37.40
41644;DHT22;44236;48.098;11.582;2023-03-01T11:15:59;17.20;37.40
41644;DHT22;44236;48.098;11.582;2023-03-01T11:18:26;17.20;37.30
41644;DHT22;44236;48.098;11.582;2023-03-01T11:20:53;17.20;37.70
41644;DHT22;44236;48.098;11.582;2023-03-01T11:23:21;17.30;37.50
41644;DHT22;44236;48.098;11.582;2023-03-01T11:25:59;17.30;36.40
41644;DHT22;44236;48.098;11.582;2023-03-01T11:28:28;17.30;38.00
41644;DHT22;44236;48.098;11.582;2023-03-01T11:31:02;17.30;36.80
41644;DHT22;44236;48.098;11.582;2023-03-01T11:38:41;17.30;37.10
41644;DHT22;44236;48.098;11.582;2023-03-01T11:41:20;17.30;37.40
41644;DHT22;44236;48.098;11.582;2023-03-01T11:43:59;17.30;37.40
41644;DHT22;44236;48.098;11.582;2023-03-01T11:51:54;17.40;35.90
41644;DHT22;44236;48.098;11.582;2023-03-01T11:57:16;17.40;36.70
41644;DHT22;44236;48.098;11.582;2023-03-01T11:59:55;17.40;37.10
41644;DHT22;44236;48.098;11.582;2023-03-01T12:10:29;17.40;36.90
41644;DHT22;44236;48.098;11.582;2023-03-01T12:13:12;17.40;37.40
41644;DHT22;44236;48.098;11.582;2023-03-01T12:26:34;17.40;37.30
41644;DHT22;44236;48.098;11.582;2023-03-01T12:31:49;17.40;37.20
41644;DHT22;44236;48.098;11.582;2023-03-01T12:40:29;17.40;37.90
41644;DHT22;44236;48.098;11.582;2023-03-01T12:51:19;17.40;37.30
41644;DHT22;44236;48.098;11.582;2023-03-01T12:53:49;17.40;37.80
41644;DHT22;44236;48.098;11.582;2023-03-01T12:56:22;17.50;36.70
41644;DHT22;44236;48.098;11.582;2023-03-01T13:18:03;17.50;37.90
41644;DHT22;44236;48.098;11.582;2023-03-01T13:26:06;17.50;38.10
41644;DHT22;44236;48.098;11.582;2023-03-01T13:33:51;17.50;38.10
41644;DHT22;44236;48.098;11.582;2023-03-01T13:38:56;17.50;38.20
41644;DHT22;44236;48.098;11.582;2023-03-01T13:41:49;17.50;38.40
41644;DHT22;44236;48.098;11.582;2023-03-01T13:44:32;17.50;38.30
41644;DHT22;44236;48.098;11.582;2023-03-01T13:47:17;17.50;38.20
41644;DHT22;44236;48.098;11.582;2023-03-01T13:49:56;17.50;38.30
41644;DHT22;44236;48.098;11.582;2023-03-01T13:52:44;17.50;38.20
41644;DHT22;44236;48.098;11.582;2023-03-01T13:57:39;17.50;38.50
41644;DHT22;44236;48.098;11.582;2023-03-01T14:00:24;17.50;38.60
41644;DHT22;44236;48.098;11.582;2023-03-01T14:05:36;17.50;39.00
41644;DHT22;44236;48.098;11.582;2023-03-01T14:08:22;17.50;38.40
41644;DHT22;44236;48.098;11.582;2023-03-01T14:10:59;17.50;38.10
41644;DHT22;44236;48.098;11.582;2023-03-01T14:16:55;17.50;38.50
41644;DHT22;44236;48.098;11.582;2023-03-01T14:19:25;17.50;38.50
41644;DHT22;44236;48.098;11.582;2023-03-01T14:22:24;17.50;38.30
41644;DHT22;44236;48.098;11.582;2023-03-01T14:24:56;17.50;38.40
41644;DHT22;44236;48.098;11.582;2023-03-01T14:27:25;17.50;38.40
41644;DHT22;44236;48.098;11.582;2023-03-01T14:29:59;17.50;38.40
41644;DHT22;44236;48.098;11.582;2023-03-01T14:32:30;17.50;38.60
41644;DHT22;44236;48.098;11.582;2023-03-01T14:34:58;17.50;38.60
41644;DHT22;44236;48.098;11.582;2023-03-01T14:37:28;17.50;38.40
41644;DHT22;44236;48.098;11.582;2023-03-01T14:39:55;17.50;38.40
41644;DHT22;44236;48.098;11.582;2023-03-01T14:42:24;17.50;38.50
41644;DHT22;44236;48.098;11.582;2023-03-01T14:44:53;17.50;38.50
41644;DHT22;44236;48.098;11.582;2023-03-01T14:47:29;17.40;38.40
41644;DHT22;44236;48.098;11.582;2023-03-01T14:50:15;17.40;38.40
41644;DHT22;44236;48.098;11.582;2023-03-01T14:52:45;17.50;38.40
41644;DHT22;44236;48.098;11.582;2023-03-01T14:55:20;17.40;38.30
41644;DHT22;44236;48.098;11.582;2023-03-01T14:57:50;17.50;38.30
41644;DHT22;44236;48.098;11.582;2023-03-01T15:00:20;17.40;38.10
41644;DHT22;44236;48.098;11.582;2023-03-01T15:02:48;17.40;38.30
41644;DHT22;44236;48.098;11.582;2023-03-01T15:05:15;17.40;38.20
41644;DHT22;44236;48.098;11.582;2023-03-01T15:07:44;17.50;38.10
41644;DHT22;44236;48.098;11.582;2023-03-01T15:10:26;17.50;37.70
41644;DHT22;44236;48.098;11.582;2023-03-01T15:12:52;17.50;38.20
41644;DHT22;44236;48.098;11.582;2023-03-01T15:17:57;17.50;37.80
41644;DHT22;44236;48.098;11.582;2023-03-01T15:20:25;17.50;38.30
41644;DHT22;44236;48.098;11.582;2023-03-01T15:22:56;17.50;38.20
41644;DHT22;44236;48.098;11.582;2023-03-01T15:25:27;17.40;38.20
41644;DHT22;44236;48.098;11.582;2023-03-01T15:27:54;17.40;38.20
41644;DHT22;44236;48.098;11.582;2023-03-01T15:30:23;17.50;38.30
41644;DHT22;44236;48.098;11.582;2023-03-01T15:33:43;17.40;38.20
41644;DHT22;44236;48.098;11.582;2023-03-01T15:39:03;17.40;38.30
41644;DHT22;44236;48.098;11.582;2023-03-01T15:41:30;17.40;38.20
41644;DHT22;44236;48.098;11.582;2023-03-01T15:44:00;17.50;38.20
41644;DHT22;44236;48.098;11.582;2023-03-01T15:46:39;17.40;38.20
41644;DHT22;44236;48.098;11.582;2023-03-01T15:49:36;17.50;38.20
41644;DHT22;44236;48.098;11.582;2023-03-01T15:52:03;17.40;38.30
41644;DHT22;44236;48.098;11.582;2023-03-01T15:54:29;17.40;38.10
41644;DHT22;44236;48.098;11.582;2023-03-01T15:56:56;17.40;38.10
41644;DHT22;44236;48.098;11.582;2023-03-01T15:59:22;17.40;37.90
41644;DHT22;44236;48.098;11.582;2023-03-01T16:01:48;17.40;38.00
41644;DHT22;44236;48.098;11.582;2023-03-01T16:04:15;17.50;38.10
41644;DHT22;44236;48.098;11.582;2023-03-01T16:06:53;17.40;38.30
41644;DHT22;44236;48.098;11.582;2023-03-01T16:09:23;17.50;38.20
41644;DHT22;44236;48.098;11.582;2023-03-01T16:11:49;17.00;34.40
41644;DHT22;44236;48.098;11.582;2023-03-01T16:14:15;16.10;34.20
41644;DHT22;44236;48.098;11.582;2023-03-01T16:16:42;15.60;35.70
41644;DHT22;44236;48.098;11.582;2023-03-01T16:19:08;15.80;36.70
41644;DHT22;44236;48.098;11.582;2023-03-01T16:21:34;16.10;37.50
41644;DHT22;44236;48.098;11.582;2023-03-01T16:24:00;16.30;38.00
41644;DHT22;44236;48.098;11.582;2023-03-01T16:26:26;16.50;38.00
41644;DHT22;44236;48.098;11.582;2023-03-01T16:28:55;16.60;37.90
41644;DHT22;44236;48.098;11.582;2023-03-01T16:31:21;16.80;38.00
41644;DHT22;44236;48.098;11.582;2023-03-01T16:33:47;16.90;37.90
41644;DHT22;44236;48.098;11.582;2023-03-01T16:36:17;16.90;37.80
41644;DHT22;44236;48.098;11.582;2023-03-01T16:38:43;17.00;37.80
41644;DHT22;44236;48.098;11.582;2023-03-01T16:41:14;17.10;37.80
41644;DHT22;44236;48.098;11.582;2023-03-01T16:43:40;17.10;37.90
41644;DHT22;44236;48.098;11.582;2023-03-01T16:46:15;17.20;37.90
41644;DHT22;44236;48.098;11.582;2023-03-01T16:48:41;17.20;38.00
41644;DHT22;44236;48.098;11.582;2023-03-01T16:51:08;17.30;38.20
41644;DHT22;44236;48.098;11.582;2023-03-01T16:53:34;17.30;38.40
41644;DHT22;44236;48.098;11.582;2023-03-01T16:56:06;17.30;38.50
41644;DHT22;44236;48.098;11.582;2023-03-01T16:58:33;17.30;38.40
41644;DHT22;44236;48.098;11.582;2023-03-01T17:01:09;17.40;38.80
41644;DHT22;44236;48.098;11.582;2023-03-01T17:03:36;17.40;38.60
41644;DHT22;44236;48.098;11.582;2023-03-01T17:06:11;17.40;38.80
41644;DHT22;44236;48.098;11.582;2023-03-01T17:08:37;17.40;39.20
41644;DHT22;44236;48.098;11.582;2023-03-01T17:11:05;17.50;39.10
41644;DHT22;44236;48.098;11.582;2023-03-01T17:13:31;17.50;38.80
41644;DHT22;44236;48.098;11.582;2023-03-01T17:15:57;17.50;39.00
41644;DHT22;44236;48.098;11.582;2023-03-01T17:18:23;17.50;38.90
41644;DHT22;44236;48.098;11.582;2023-03-01T17:20:49;17.50;39.00
41644;DHT22;44236;48.098;11.582;2023-03-01T17:23:15;17.50;39.50
41644;DHT22;44236;48.098;11.582;2023-03-01T17:25:43;17.50;39.10
41644;DHT22;44236;48.098;11.582;2023-03-01T17:28:13;17.60;39.10
41644;DHT22;44236;48.098;11.582;2023-03-01T17:30:43;17.50;39.70
41644;DHT22;44236;48.098;11.582;2023-03-01T17:33:10;17.50;39.30
41644;DHT22;44236;48.098;11.582;2023-03-01T17:35:36;17.60;40.30
41644;DHT22;44236;48.098;11.582;2023-03-01T17:38:03;17.60;39.30
41644;DHT22;44236;48.098;11.582;2023-03-01T17:40:29;17.60;39.50
41644;DHT22;44236;48.098;11.582;2023-03-01T17:42:55;17.60;39.20
41644;DHT22;44236;48.098;11.582;2023-03-01T17:45:21;17.60;38.90